^^
Meteo Knjazevac Station Historical Data
Daily Summary for May 7, 2021 Units:  Both    English   Metric
Daily Weekly Monthly Yearly Custom
  High: Low: Average:
Temperature: 78.6 °F /  25.9 °C 55.8 °F /  13.2 °C 67.1 °F /  19.5 °C
Dew Point: 65.1 °F /  18.4 °C 53.9 °F /  12.2 °C 60.3 °F /  15.7 °C
Humidity: 96% 62% 80%
Wind Speed: 8mph /  12.9km/h - 1.7mph /  2.7km/h
Wind Gust: 14mph /  22.5km/h - -
Wind- - South
Pressure: 30.13 in /  1020.2 hPa 30.07 in /  1018.2 hPa -
Precipitation: 0.00 in /  0 mm    
Historical Graphs
 
 
Tabular Data for May 7, 2021
Time Temperature Dew Point Pressure Wind Wind Speed Wind Gust Humidity Rainfall Rate (Hourly) solar Conditions
00:00 65.1 °F /  18.4 °C 59.9 °F /  15.5 °C 30.12in /  1019.9hPa SE 2mph /  3.2km/h 4mph /  6.4km/h 83% 0.00in /  0mm 0 W/m2
00:10 64.9 °F /  18.3 °C 59.7 °F /  15.4 °C 30.12in /  1019.9hPa WSW 1mph /  1.6km/h 4mph /  6.4km/h 83% 0.00in /  0mm 0 W/m2
00:20 64.6 °F /  18.1 °C 59.6 °F /  15.3 °C 30.12in /  1019.9hPa WSW 1mph /  1.6km/h 4mph /  6.4km/h 84% 0.00in /  0mm 0 W/m2
00:30 64.4 °F /  18 °C 59.5 °F /  15.3 °C 30.12in /  1019.9hPa NNE 1mph /  1.6km/h 3mph /  4.8km/h 84% 0.00in /  0mm 0 W/m2
00:40 64.2 °F /  17.9 °C 59.3 °F /  15.2 °C 30.12in /  1019.9hPa ENE 1mph /  1.6km/h 4mph /  6.4km/h 84% 0.00in /  0mm 0 W/m2
00:50 64.2 °F /  17.9 °C 59.3 °F /  15.2 °C 30.12in /  1019.9hPa Calm   2mph /  3.2km/h 84% 0.00in /  0mm 0 W/m2
01:00 63.9 °F /  17.7 °C 59.3 °F /  15.2 °C 30.11in /  1019.5hPa NNW 1mph /  1.6km/h 2mph /  3.2km/h 85% 0.00in /  0mm 0 W/m2
01:10 63.5 °F /  17.5 °C 58.9 °F /  14.9 °C 30.11in /  1019.5hPa Calm   2mph /  3.2km/h 85% 0.00in /  0mm 0 W/m2
01:20 63.1 °F /  17.3 °C 58.6 °F /  14.8 °C 30.12in /  1019.9hPa ESE 2mph /  3.2km/h 4mph /  6.4km/h 85% 0.00in /  0mm 0 W/m2
01:30 62.8 °F /  17.1 °C 58.5 °F /  14.7 °C 30.11in /  1019.5hPa Calm   3mph /  4.8km/h 86% 0.00in /  0mm 0 W/m2
01:40 62.6 °F /  17 °C 58.4 °F /  14.7 °C 30.11in /  1019.5hPa Calm   3mph /  4.8km/h 86% 0.00in /  0mm 0 W/m2
01:50 62.2 °F /  16.8 °C 58 °F /  14.4 °C 30.11in /  1019.5hPa Calm   2mph /  3.2km/h 86% 0.00in /  0mm 0 W/m2
02:00 61.9 °F /  16.6 °C 57.7 °F /  14.3 °C 30.11in /  1019.5hPa Calm   2mph /  3.2km/h 86% 0.00in /  0mm 0 W/m2
02:10 61.5 °F /  16.4 °C 57.9 °F /  14.4 °C 30.11in /  1019.5hPa Calm   1mph /  1.6km/h 88% 0.00in /  0mm 0 W/m2
02:20 61.2 °F /  16.2 °C 57.6 °F /  14.2 °C 30.11in /  1019.5hPa NNW 1mph /  1.6km/h 2mph /  3.2km/h 88% 0.00in /  0mm 0 W/m2
02:30 61 °F /  16.1 °C 57.7 °F /  14.3 °C 30.11in /  1019.5hPa Calm   3mph /  4.8km/h 89% 0.00in /  0mm 0 W/m2
02:40 60.6 °F /  15.9 °C 57.4 °F /  14.1 °C 30.11in /  1019.5hPa Calm     89% 0.00in /  0mm 0 W/m2
02:50 60.4 °F /  15.8 °C 57.2 °F /  14 °C 30.11in /  1019.5hPa Calm   2mph /  3.2km/h 89% 0.00in /  0mm 0 W/m2
03:00 60.3 °F /  15.7 °C 57.3 °F /  14.1 °C 30.11in /  1019.5hPa Calm   2mph /  3.2km/h 90% 0.00in /  0mm 0 W/m2
03:10 59.9 °F /  15.5 °C 57 °F /  13.9 °C 30.11in /  1019.5hPa East 1mph /  1.6km/h 2mph /  3.2km/h 90% 0.00in /  0mm 0 W/m2
03:20 59.5 °F /  15.3 °C 56.6 °F /  13.7 °C 30.11in /  1019.5hPa Calm   2mph /  3.2km/h 90% 0.00in /  0mm 0 W/m2
03:30 59.4 °F /  15.2 °C 56.4 °F /  13.6 °C 30.11in /  1019.5hPa Calm   2mph /  3.2km/h 90% 0.00in /  0mm 0 W/m2
03:40 58.8 °F /  14.9 °C 55.9 °F /  13.3 °C 30.11in /  1019.5hPa NNW 1mph /  1.6km/h 2mph /  3.2km/h 90% 0.00in /  0mm 0 W/m2
03:50 58.6 °F /  14.8 °C 56 °F /  13.3 °C 30.11in /  1019.5hPa Calm     91% 0.00in /  0mm 0 W/m2
04:00 58.3 °F /  14.6 °C 55.4 °F /  13 °C 30.11in /  1019.5hPa Calm   2mph /  3.2km/h 90% 0.00in /  0mm 0 W/m2
04:10 57.9 °F /  14.4 °C 55.3 °F /  12.9 °C 30.11in /  1019.5hPa Calm   2mph /  3.2km/h 91% 0.00in /  0mm 0 W/m2
04:20 57.6 °F /  14.2 °C 55 °F /  12.8 °C 30.11in /  1019.5hPa North 1mph /  1.6km/h 2mph /  3.2km/h 91% 0.00in /  0mm 0 W/m2
04:30 57 °F /  13.9 °C 54.4 °F /  12.4 °C 30.12in /  1019.9hPa Calm   1mph /  1.6km/h 91% 0.00in /  0mm 0 W/m2
04:40 56.8 °F /  13.8 °C 54.2 °F /  12.3 °C 30.12in /  1019.9hPa Calm   1mph /  1.6km/h 91% 0.00in /  0mm 0 W/m2
04:50 56.5 °F /  13.6 °C 54.5 °F /  12.5 °C 30.12in /  1019.9hPa Calm   2mph /  3.2km/h 93% 0.00in /  0mm 3 W/m2
05:00 56.5 °F /  13.6 °C 54.5 °F /  12.5 °C 30.12in /  1019.9hPa Calm     93% 0.00in /  0mm 8 W/m2
05:10 56.3 °F /  13.5 °C 54.3 °F /  12.4 °C 30.12in /  1019.9hPa Calm   2mph /  3.2km/h 93% 0.00in /  0mm 17 W/m2
05:20 55.9 °F /  13.3 °C 53.9 °F /  12.2 °C 30.12in /  1019.9hPa Calm   2mph /  3.2km/h 93% 0.00in /  0mm 28 W/m2
05:30 55.9 °F /  13.3 °C 54.2 °F /  12.3 °C 30.12in /  1019.9hPa Calm   2mph /  3.2km/h 94% 0.00in /  0mm 37 W/m2
05:40 55.8 °F /  13.2 °C 54.1 °F /  12.3 °C 30.13in /  1020.2hPa NW 1mph /  1.6km/h 2mph /  3.2km/h 94% 0.00in /  0mm 43 W/m2
05:50 55.9 °F /  13.3 °C 54.2 °F /  12.3 °C 30.12in /  1019.9hPa Calm   3mph /  4.8km/h 94% 0.00in /  0mm 61 W/m2
06:00 55.8 °F /  13.2 °C 54.1 °F /  12.3 °C 30.13in /  1020.2hPa Calm   1mph /  1.6km/h 94% 0.00in /  0mm 101 W/m2
06:10 55.9 °F /  13.3 °C 54.5 °F /  12.5 °C 30.13in /  1020.2hPa Calm   2mph /  3.2km/h 95% 0.00in /  0mm 114 W/m2
06:20 56.3 °F /  13.5 °C 54.9 °F /  12.7 °C 30.13in /  1020.2hPa Calm   1mph /  1.6km/h 95% 0.00in /  0mm 148 W/m2
06:30 56.7 °F /  13.7 °C 55.2 °F /  12.9 °C 30.13in /  1020.2hPa Calm   1mph /  1.6km/h 95% 0.00in /  0mm 116 W/m2
06:40 57 °F /  13.9 °C 55.6 °F /  13.1 °C 30.13in /  1020.2hPa Calm   1mph /  1.6km/h 95% 0.00in /  0mm 108 W/m2
06:50 57.4 °F /  14.1 °C 56.2 °F /  13.4 °C 30.13in /  1020.2hPa NW 1mph /  1.6km/h 2mph /  3.2km/h 96% 0.00in /  0mm 121 W/m2
07:00 57.7 °F /  14.3 °C 56.6 °F /  13.7 °C 30.13in /  1020.2hPa SW 1mph /  1.6km/h 2mph /  3.2km/h 96% 0.00in /  0mm 322 W/m2
07:10 58.5 °F /  14.7 °C 57.3 °F /  14.1 °C 30.13in /  1020.2hPa Calm   2mph /  3.2km/h 96% 0.00in /  0mm 337 W/m2
07:20 59.4 °F /  15.2 °C 57.9 °F /  14.4 °C 30.13in /  1020.2hPa Calm   2mph /  3.2km/h 95% 0.00in /  0mm 218 W/m2
07:30 60.3 °F /  15.7 °C 58.8 °F /  14.9 °C 30.13in /  1020.2hPa Calm   2mph /  3.2km/h 95% 0.00in /  0mm 248 W/m2
07:40 61.3 °F /  16.3 °C 59.6 °F /  15.3 °C 30.13in /  1020.2hPa Calm   3mph /  4.8km/h 94% 0.00in /  0mm 278 W/m2
07:50 62.4 °F /  16.9 °C 59.8 °F /  15.4 °C 30.13in /  1020.2hPa SE 2mph /  3.2km/h 4mph /  6.4km/h 91% 0.00in /  0mm 354 W/m2
08:00 63.3 °F /  17.4 °C 60.3 °F /  15.7 °C 30.13in /  1020.2hPa South 2mph /  3.2km/h 5mph /  8km/h 90% 0.00in /  0mm 468 W/m2
08:10 64.2 °F /  17.9 °C 61.2 °F /  16.2 °C 30.13in /  1020.2hPa SSE 2mph /  3.2km/h 4mph /  6.4km/h 90% 0.00in /  0mm 328 W/m2
08:20 65.1 °F /  18.4 °C 61.8 °F /  16.6 °C 30.13in /  1020.2hPa South 1mph /  1.6km/h 4mph /  6.4km/h 89% 0.00in /  0mm 504 W/m2
08:30 65.7 °F /  18.7 °C 62 °F /  16.7 °C 30.13in /  1020.2hPa South 1mph /  1.6km/h 6mph /  9.7km/h 88% 0.00in /  0mm 274 W/m2
08:40 66 °F /  18.9 °C 61.4 °F /  16.3 °C 30.13in /  1020.2hPa SW 1mph /  1.6km/h 3mph /  4.8km/h 85% 0.00in /  0mm 621 W/m2
08:50 66.7 °F /  19.3 °C 62.1 °F /  16.7 °C 30.13in /  1020.2hPa NW 2mph /  3.2km/h 5mph /  8km/h 85% 0.00in /  0mm 571 W/m2
09:00 68.2 °F /  20.1 °C 62.8 °F /  17.1 °C 30.13in /  1020.2hPa Calm   4mph /  6.4km/h 83% 0.00in /  0mm 676 W/m2
09:10 69.8 °F /  21 °C 62.6 °F /  17 °C 30.13in /  1020.2hPa Calm   5mph /  8km/h 78% 0.00in /  0mm 666 W/m2
09:20 70.5 °F /  21.4 °C 62.2 °F /  16.8 °C 30.13in /  1020.2hPa Calm   4mph /  6.4km/h 75% 0.00in /  0mm 629 W/m2
09:30 71.3 °F /  21.8 °C 62.2 °F /  16.8 °C 30.13in /  1020.2hPa East 2mph /  3.2km/h 4mph /  6.4km/h 73% 0.00in /  0mm 751 W/m2
09:40 72 °F /  22.2 °C 62.4 °F /  16.9 °C 30.13in /  1020.2hPa West 2mph /  3.2km/h 5mph /  8km/h 72% 0.00in /  0mm 774 W/m2
09:50 72.9 °F /  22.7 °C 62.5 °F /  16.9 °C 30.13in /  1020.2hPa West 2mph /  3.2km/h 5mph /  8km/h 70% 0.00in /  0mm 797 W/m2
10:00 74.1 °F /  23.4 °C 63.3 °F /  17.4 °C 30.12in /  1019.9hPa SSW 1mph /  1.6km/h 5mph /  8km/h 69% 0.00in /  0mm 818 W/m2
10:10 75 °F /  23.9 °C 63.3 °F /  17.4 °C 30.13in /  1020.2hPa SSW 2mph /  3.2km/h 5mph /  8km/h 67% 0.00in /  0mm 838 W/m2
10:20 75.6 °F /  24.2 °C 63.8 °F /  17.7 °C 30.12in /  1019.9hPa WSW 2mph /  3.2km/h 6mph /  9.7km/h 67% 0.00in /  0mm 856 W/m2
10:30 76.3 °F /  24.6 °C 63.2 °F /  17.3 °C 30.12in /  1019.9hPa South 3mph /  4.8km/h 7mph /  11.3km/h 64% 0.00in /  0mm 874 W/m2
10:40 77 °F /  25 °C 63.9 °F /  17.7 °C 30.12in /  1019.9hPa NE 2mph /  3.2km/h 7mph /  11.3km/h 64% 0.00in /  0mm 354 W/m2
10:50 77.4 °F /  25.2 °C 63.8 °F /  17.7 °C 30.12in /  1019.9hPa NNE 3mph /  4.8km/h 7mph /  11.3km/h 63% 0.00in /  0mm 905 W/m2
11:00 77.5 °F /  25.3 °C 63.5 °F /  17.5 °C 30.12in /  1019.9hPa Calm   6mph /  9.7km/h 62% 0.00in /  0mm 666 W/m2
11:10 77.2 °F /  25.1 °C 63.6 °F /  17.6 °C 30.11in /  1019.5hPa NNE 2mph /  3.2km/h 7mph /  11.3km/h 63% 0.00in /  0mm 716 W/m2
11:20 76.8 °F /  24.9 °C 62.8 °F /  17.1 °C 30.11in /  1019.5hPa NNE 2mph /  3.2km/h 5mph /  8km/h 62% 0.00in /  0mm 462 W/m2
11:30 76.5 °F /  24.7 °C 63.8 °F /  17.7 °C 30.11in /  1019.5hPa Calm   5mph /  8km/h 65% 0.00in /  0mm 445 W/m2
11:40 76.5 °F /  24.7 °C 63.8 °F /  17.7 °C 30.11in /  1019.5hPa North 1mph /  1.6km/h 5mph /  8km/h 65% 0.00in /  0mm 423 W/m2
11:50 76.4 °F /  24.7 °C 62.9 °F /  17.2 °C 30.11in /  1019.5hPa NW 1mph /  1.6km/h 5mph /  8km/h 63% 0.00in /  0mm 539 W/m2
12:00 76.6 °F /  24.8 °C 63.1 °F /  17.3 °C 30.10in /  1019.2hPa Calm   4mph /  6.4km/h 63% 0.00in /  0mm 671 W/m2
12:10 76.6 °F /  24.8 °C 63.1 °F /  17.3 °C 30.10in /  1019.2hPa West 2mph /  3.2km/h 6mph /  9.7km/h 63% 0.00in /  0mm 556 W/m2
12:20 76.8 °F /  24.9 °C 64.2 °F /  17.9 °C 30.10in /  1019.2hPa West 1mph /  1.6km/h 5mph /  8km/h 65% 0.00in /  0mm 800 W/m2
12:30 77.7 °F /  25.4 °C 64.1 °F /  17.8 °C 30.09in /  1018.8hPa WNW 2mph /  3.2km/h 5mph /  8km/h 63% 0.00in /  0mm 683 W/m2
12:40 77.9 °F /  25.5 °C 64.3 °F /  17.9 °C 30.09in /  1018.8hPa WSW 2mph /  3.2km/h 7mph /  11.3km/h 63% 0.00in /  0mm 549 W/m2
12:50 77.9 °F /  25.5 °C 64.7 °F /  18.2 °C 30.09in /  1018.8hPa NNW 1mph /  1.6km/h 5mph /  8km/h 64% 0.00in /  0mm 456 W/m2
13:00 77.9 °F /  25.5 °C 64.7 °F /  18.2 °C 30.09in /  1018.8hPa WSW 3mph /  4.8km/h 8mph /  12.9km/h 64% 0.00in /  0mm 611 W/m2
13:10 77.9 °F /  25.5 °C 64.7 °F /  18.2 °C 30.08in /  1018.5hPa WSW 3mph /  4.8km/h 10mph /  16.1km/h 64% 0.00in /  0mm 650 W/m2
13:20 77.8 °F /  25.4 °C 64.1 °F /  17.8 °C 30.08in /  1018.5hPa West 1mph /  1.6km/h 7mph /  11.3km/h 63% 0.00in /  0mm 689 W/m2
13:30 78.1 °F /  25.6 °C 64.5 °F /  18.1 °C 30.08in /  1018.5hPa West 3mph /  4.8km/h 8mph /  12.9km/h 63% 0.00in /  0mm 625 W/m2
13:40 78.3 °F /  25.7 °C 64.2 °F /  17.9 °C 30.08in /  1018.5hPa SW 3mph /  4.8km/h 7mph /  11.3km/h 62% 0.00in /  0mm 935 W/m2
13:50 78.6 °F /  25.9 °C 64.5 °F /  18.1 °C 30.08in /  1018.5hPa SW 5mph /  8km/h 8mph /  12.9km/h 62% 0.00in /  0mm 323 W/m2
14:00 78.1 °F /  25.6 °C 64.5 °F /  18.1 °C 30.08in /  1018.5hPa WSW 2mph /  3.2km/h 7mph /  11.3km/h 63% 0.00in /  0mm 257 W/m2
14:10 77.7 °F /  25.4 °C 64.1 °F /  17.8 °C 30.08in /  1018.5hPa WSW 5mph /  8km/h 7mph /  11.3km/h 63% 0.00in /  0mm 181 W/m2
14:20 76.4 °F /  24.7 °C 65.1 °F /  18.4 °C 30.08in /  1018.5hPa WNW 8mph /  12.9km/h 13mph /  20.9km/h 68% 0.00in /  0mm 152 W/m2
14:30 75 °F /  23.9 °C 64.2 °F /  17.9 °C 30.08in /  1018.5hPa West 6mph /  9.7km/h 13mph /  20.9km/h 69% 0.00in /  0mm 121 W/m2
14:40 73.5 °F /  23.1 °C 62.3 °F /  16.8 °C 30.08in /  1018.5hPa West 8mph /  12.9km/h 14mph /  22.5km/h 68% 0.00in /  0mm 98 W/m2
14:50 71.9 °F /  22.2 °C 60.8 °F /  16 °C 30.09in /  1018.8hPa West 7mph /  11.3km/h 14mph /  22.5km/h 68% 0.00in /  0mm 93 W/m2
15:00 70.7 °F /  21.5 °C 61.2 °F /  16.2 °C 30.08in /  1018.5hPa West 5mph /  8km/h 13mph /  20.9km/h 72% 0.00in /  0mm 96 W/m2
15:10 70 °F /  21.1 °C 61.7 °F /  16.5 °C 30.08in /  1018.5hPa WSW 3mph /  4.8km/h 10mph /  16.1km/h 75% 0.00in /  0mm 112 W/m2
15:20 69.3 °F /  20.7 °C 62.1 °F /  16.7 °C 30.09in /  1018.8hPa West 5mph /  8km/h 9mph /  14.5km/h 78% 0.01in /  0.25mm 145 W/m2
15:30 68.5 °F /  20.3 °C 61.4 °F /  16.3 °C 30.08in /  1018.5hPa West 6mph /  9.7km/h 12mph /  19.3km/h 78% 0.00in /  0mm 172 W/m2
15:40 68.5 °F /  20.3 °C 61.8 °F /  16.6 °C 30.09in /  1018.8hPa West 1mph /  1.6km/h 9mph /  14.5km/h 79% 0.00in /  0mm 202 W/m2
15:50 68.7 °F /  20.4 °C 61.6 °F /  16.4 °C 30.09in /  1018.8hPa Calm   3mph /  4.8km/h 78% 0.00in /  0mm 227 W/m2
16:00 68.9 °F /  20.5 °C 61.8 °F /  16.6 °C 30.09in /  1018.8hPa WSW 1mph /  1.6km/h 3mph /  4.8km/h 78% 0.00in /  0mm 242 W/m2
16:10 69.1 °F /  20.6 °C 62 °F /  16.7 °C 30.09in /  1018.8hPa SW 1mph /  1.6km/h 2mph /  3.2km/h 78% 0.00in /  0mm 282 W/m2
16:20 69.6 °F /  20.9 °C 62.5 °F /  16.9 °C 30.09in /  1018.8hPa SE 3mph /  4.8km/h 8mph /  12.9km/h 78% 0.00in /  0mm 261 W/m2
16:30 70 °F /  21.1 °C 63.2 °F /  17.3 °C 30.08in /  1018.5hPa SSE 2mph /  3.2km/h 5mph /  8km/h 79% 0.00in /  0mm 257 W/m2
16:40 70.3 °F /  21.3 °C 63.2 °F /  17.3 °C 30.09in /  1018.8hPa SSW 1mph /  1.6km/h 5mph /  8km/h 78% 0.00in /  0mm 240 W/m2
16:50 70.7 °F /  21.5 °C 62.4 °F /  16.9 °C 30.09in /  1018.8hPa SSE 2mph /  3.2km/h 10mph /  16.1km/h 75% 0.00in /  0mm 202 W/m2
17:00 70.5 °F /  21.4 °C 61.4 °F /  16.3 °C 30.09in /  1018.8hPa SSE 5mph /  8km/h 12mph /  19.3km/h 73% 0.00in /  0mm 167 W/m2
17:10 70.5 °F /  21.4 °C 61.4 °F /  16.3 °C 30.09in /  1018.8hPa SE 3mph /  4.8km/h 12mph /  19.3km/h 73% 0.00in /  0mm 297 W/m2
17:20 70.7 °F /  21.5 °C 61.6 °F /  16.4 °C 30.09in /  1018.8hPa SSE 3mph /  4.8km/h 7mph /  11.3km/h 73% 0.00in /  0mm 257 W/m2
17:30 71.1 °F /  21.7 °C 62.4 °F /  16.9 °C 30.08in /  1018.5hPa SSW 3mph /  4.8km/h 6mph /  9.7km/h 74% 0.00in /  0mm 296 W/m2
17:40 71.4 °F /  21.9 °C 63.1 °F /  17.3 °C 30.08in /  1018.5hPa South 1mph /  1.6km/h 6mph /  9.7km/h 75% 0.00in /  0mm 304 W/m2
17:50 72 °F /  22.2 °C 63.2 °F /  17.3 °C 30.08in /  1018.5hPa South 3mph /  4.8km/h 7mph /  11.3km/h 74% 0.00in /  0mm 171 W/m2
18:00 72.3 °F /  22.4 °C 62.8 °F /  17.1 °C 30.08in /  1018.5hPa SSW 3mph /  4.8km/h 7mph /  11.3km/h 72% 0.00in /  0mm 287 W/m2
18:10 72.3 °F /  22.4 °C 63.2 °F /  17.3 °C 30.07in /  1018.2hPa SSE 1mph /  1.6km/h 8mph /  12.9km/h 73% 0.00in /  0mm 219 W/m2
18:20 72.7 °F /  22.6 °C 63.5 °F /  17.5 °C 30.07in /  1018.2hPa SW 1mph /  1.6km/h 4mph /  6.4km/h 73% 0.00in /  0mm 194 W/m2
18:30 73 °F /  22.8 °C 63.5 °F /  17.5 °C 30.07in /  1018.2hPa SSW 2mph /  3.2km/h 4mph /  6.4km/h 72% 0.00in /  0mm 187 W/m2
18:40 72.9 °F /  22.7 °C 63.3 °F /  17.4 °C 30.07in /  1018.2hPa South 2mph /  3.2km/h 5mph /  8km/h 72% 0.00in /  0mm 97 W/m2
18:50 72.3 °F /  22.4 °C 63.2 °F /  17.3 °C 30.08in /  1018.5hPa ESE 1mph /  1.6km/h 5mph /  8km/h 73% 0.00in /  0mm 84 W/m2
19:00 72 °F /  22.2 °C 62.8 °F /  17.1 °C 30.08in /  1018.5hPa ESE 1mph /  1.6km/h 3mph /  4.8km/h 73% 0.00in /  0mm 60 W/m2
19:10 71.4 °F /  21.9 °C 62.3 °F /  16.8 °C 30.08in /  1018.5hPa SE 1mph /  1.6km/h 5mph /  8km/h 73% 0.00in /  0mm 47 W/m2
19:20 71.1 °F /  21.7 °C 62 °F /  16.7 °C 30.08in /  1018.5hPa SSE 1mph /  1.6km/h 3mph /  4.8km/h 73% 0.00in /  0mm 43 W/m2
19:30 70.7 °F /  21.5 °C 61.2 °F /  16.2 °C 30.08in /  1018.5hPa ESE 3mph /  4.8km/h 6mph /  9.7km/h 72% 0.00in /  0mm 30 W/m2
19:40 70 °F /  21.1 °C 60.9 °F /  16.1 °C 30.08in /  1018.5hPa SE 3mph /  4.8km/h 6mph /  9.7km/h 73% 0.00in /  0mm 20 W/m2
19:50 69.4 °F /  20.8 °C 60.8 °F /  16 °C 30.08in /  1018.5hPa ESE 3mph /  4.8km/h 7mph /  11.3km/h 74% 0.00in /  0mm 13 W/m2
20:00 68.7 °F /  20.4 °C 60.5 °F /  15.8 °C 30.08in /  1018.5hPa SE 3mph /  4.8km/h 7mph /  11.3km/h 75% 0.00in /  0mm 7 W/m2
20:10 68.2 °F /  20.1 °C 60.7 °F /  15.9 °C 30.09in /  1018.8hPa SE 3mph /  4.8km/h 8mph /  12.9km/h 77% 0.00in /  0mm 0 W/m2
20:20 67.8 °F /  19.9 °C 60.7 °F /  15.9 °C 30.09in /  1018.8hPa SSE 2mph /  3.2km/h 6mph /  9.7km/h 78% 0.00in /  0mm 0 W/m2
20:30 67.5 °F /  19.7 °C 60.7 °F /  15.9 °C 30.09in /  1018.8hPa SE 2mph /  3.2km/h 5mph /  8km/h 79% 0.00in /  0mm 0 W/m2
20:40 67.1 °F /  19.5 °C 60.4 °F /  15.8 °C 30.09in /  1018.8hPa SSE 2mph /  3.2km/h 4mph /  6.4km/h 79% 0.00in /  0mm 0 W/m2
20:50 66.9 °F /  19.4 °C 60.5 °F /  15.8 °C 30.09in /  1018.8hPa ESE 1mph /  1.6km/h 6mph /  9.7km/h 80% 0.00in /  0mm 0 W/m2
21:00 66.6 °F /  19.2 °C 60.2 °F /  15.7 °C 30.10in /  1019.2hPa ESE 2mph /  3.2km/h 7mph /  11.3km/h 80% 0.00in /  0mm 0 W/m2
21:10 66.4 °F /  19.1 °C 60 °F /  15.6 °C 30.10in /  1019.2hPa SSE 1mph /  1.6km/h 5mph /  8km/h 80% 0.00in /  0mm 0 W/m2
21:20 66.3 °F /  19.1 °C 60.3 °F /  15.7 °C 30.10in /  1019.2hPa Calm   3mph /  4.8km/h 81% 0.00in /  0mm 0 W/m2
21:30 66 °F /  18.9 °C 60.7 °F /  15.9 °C 30.10in /  1019.2hPa ENE 3mph /  4.8km/h 7mph /  11.3km/h 83% 0.00in /  0mm 0 W/m2
21:40 65.7 °F /  18.7 °C 60.4 °F /  15.8 °C 30.11in /  1019.5hPa ESE 5mph /  8km/h 8mph /  12.9km/h 83% 0.00in /  0mm 0 W/m2
21:50 65.2 °F /  18.4 °C 60.3 °F /  15.7 °C 30.11in /  1019.5hPa ESE 3mph /  4.8km/h 9mph /  14.5km/h 84% 0.00in /  0mm 0 W/m2
22:00 64.9 °F /  18.3 °C 60 °F /  15.6 °C 30.11in /  1019.5hPa ESE 3mph /  4.8km/h 9mph /  14.5km/h 84% 0.00in /  0mm 0 W/m2
22:10 64.6 °F /  18.1 °C 60 °F /  15.6 °C 30.11in /  1019.5hPa ESE 2mph /  3.2km/h 9mph /  14.5km/h 85% 0.00in /  0mm 0 W/m2
22:20 64.2 °F /  17.9 °C 59.6 °F /  15.3 °C 30.11in /  1019.5hPa SE 3mph /  4.8km/h 7mph /  11.3km/h 85% 0.00in /  0mm 0 W/m2
22:30 64 °F /  17.8 °C 59.4 °F /  15.2 °C 30.11in /  1019.5hPa Calm   4mph /  6.4km/h 85% 0.00in /  0mm 0 W/m2
22:40 63.8 °F /  17.7 °C 59.2 °F /  15.1 °C 30.11in /  1019.5hPa NE 2mph /  3.2km/h 7mph /  11.3km/h 85% 0.00in /  0mm 0 W/m2
22:50 63.3 °F /  17.4 °C 58.7 °F /  14.8 °C 30.11in /  1019.5hPa SE 3mph /  4.8km/h 9mph /  14.5km/h 85% 0.00in /  0mm 0 W/m2
23:00 62.8 °F /  17.1 °C 58.5 °F /  14.7 °C 30.12in /  1019.9hPa SE 3mph /  4.8km/h 8mph /  12.9km/h 86% 0.00in /  0mm 0 W/m2
23:10 62.6 °F /  17 °C 58.4 °F /  14.7 °C 30.11in /  1019.5hPa SE 5mph /  8km/h 9mph /  14.5km/h 86% 0.00in /  0mm 0 W/m2
23:20 62.4 °F /  16.9 °C 58.2 °F /  14.6 °C 30.11in /  1019.5hPa SE 3mph /  4.8km/h 8mph /  12.9km/h 86% 0.00in /  0mm 0 W/m2
23:30 62.2 °F /  16.8 °C 58 °F /  14.4 °C 30.11in /  1019.5hPa SE 2mph /  3.2km/h 6mph /  9.7km/h 86% 0.00in /  0mm 0 W/m2
23:40 62.1 °F /  16.7 °C 58.5 °F /  14.7 °C 30.11in /  1019.5hPa SSE 5mph /  8km/h 8mph /  12.9km/h 88% 0.00in /  0mm 0 W/m2
23:50 61.9 °F /  16.6 °C 58.3 °F /  14.6 °C 30.12in /  1019.9hPa SSE 1mph /  1.6km/h 7mph /  11.3km/h 88% 0.00in /  0mm 0 W/m2
Knjazevac, Serbia
Compliments of Weather Underground - 2 mb